Terminal Aerodrome Forecast
Issued by NWS

Home | Current Version | Previous Version | Text Only | Print | Product List | Glossary On
Versions: 1 2 3 4 5 6 7 8 9 10 11 12 13 14
000
FTUS45 KVEF 230500
TAFDAG
TAF
KDAG 230522Z 2306/2406 26023G32KT P6SM SCT250
     FM231000 26011KT P6SM SCT250
     FM231500 31008KT P6SM SCT250
     FM231800 04008KT P6SM SCT250
     FM240100 VRB06KT P6SM SCT250=

USA.gov is the U.S. government's official web portal to all federal, state and local government web resources and services.